ADDS METAR Data INFO
IDs: Format: Raw Decoded Include TAF

Data at: 1917 UTC 19 Jul 2018

KSGF 191852Z 10SM CLR 33/21 A2988 RMK AO2 SLP104 T03330211
KSGF 191752Z 21006KT 10SM CLR 32/22 A2991 RMK AO2 SLP112 T03170222 10317 20228 58004
KSGF 191652Z 18007KT 130V200 10SM CLR 29/22 A2991 RMK AO2 SLP113 T02940222
KSGF 191600Z 19006KT 10SM SCT013 28/22 A2992 RMK AO2 T02780222
KSGF 191552Z 18007KT 10SM BKN013 27/22 A2992 RMK AO2 SLP117 T02720222
KSGF 191452Z 17010KT 10SM OVC010 26/22 A2992 RMK AO2 CIG 009V013 SLP117 T02610222 56008
KSGF 191352Z 16011KT 8SM OVC006 24/22 A2992 RMK AO2 CIG 004V007 SLP117 T02440222
KSGF 191309Z 16008KT 4SM BR OVC003 23/22 A2994 RMK AO2 T02330217
KSGF 191259Z 17008KT 2 1/2SM BR OVC003 23/22 A2994 RMK AO2 T02330217
KSGF 191252Z 16009KT 3SM BR OVC003 23/22 A2994 RMK AO2 SLP124 T02330217
KSGF 191152Z 16005KT 5SM BR OVC004 23/22 A2994 RMK AO2 SLP125 T02280217 10239 20228 53001
KSGF 191052Z 16009KT 6SM BR OVC003 23/22 A2993 RMK AO2 SLP120 T02280217
KSGF 190952Z 15010KT 7SM OVC004 23/21 A2993 RMK AO2 SLP119 T02280211
KSGF 190938Z 15009KT 8SM OVC004 23/21 A2993 RMK AO2 T02280211
KSGF 190852Z 17008KT 10SM BKN006 23/21 A2994 RMK AO2 SLP123 T02280211 55006
KSGF 190845Z 16008KT 10SM BKN006 23/21 A2994 RMK AO2 T02280211
KSGF 190830Z 15006KT 10SM FEW006 23/21 A2994 RMK AO2 T02280211
KSGF 190752Z 16009KT 10SM CLR 23/21 A2993 RMK AO2 SLP121 T02280206
KSGF 190652Z 14008KT 10SM CLR 23/21 A2995 RMK AO2 SLP126 T02330211
KSGF 190552Z 15007KT 10SM CLR 24/22 A2996 RMK AO2 SLP129 T02390217 10294 20239 403170239 51006
KSGF 190452Z 16006KT 10SM CLR 25/22 A2996 RMK AO2 SLP130 T02500217
KSGF 190352Z 16010KT 10SM CLR 26/22 A2995 RMK AO2 SLP129 T02560222
KSGF 190252Z 14007KT 10SM CLR 27/22 A2994 RMK AO2 SLP124 T02670217 53007
KSGF 190152Z 16006KT 10SM FEW080 27/22 A2993 RMK AO2 SLP119 T02720217
KSGF 190052Z 13008KT 10SM CLR 28/22 A2992 RMK AO2 SLP118 T02830217
KSGF 182352Z 15008KT 10SM CLR 29/22 A2992 RMK AO2 SLP116 T02940222 10317 20283 58008
KSGF 182252Z 17005KT 10SM FEW110 28/22 A2995 RMK AO2 SLP126 T02830217
KSGF 182152Z 18007KT 10SM SCT075 29/22 A2994 RMK AO2 LTG DSNT W-N SLP124 T02890217
KSGF 182052Z 19011KT 10SM FEW030 SCT075 31/22 A2994 RMK AO2 LTG DSNT W SLP124 T03110222 58017
KSGF 181952Z 15013KT 10SM SCT029 BKN070 BKN100 30/22 A2996 RMK AO2 SLP131 T03000217
KSGF 181852Z 16008KT 10SM FEW029 FEW036 BKN060 30/22 A2999 RMK AO2 SLP138 T03000217
KSGF 181752Z 16009KT 10SM SCT026 BKN070 30/22 A2999 RMK AO2 SLP141 T03000222 10300 20244 58006
KSGF 181652Z 17007KT 10SM FEW019 28/22 A3001 RMK AO2 SLP146 T02830217
KSGF 181621Z 15008KT 10SM SCT019 27/22 A3001 RMK AO2 T02720217
KSGF 181552Z 16009KT 10SM BKN019 BKN070 27/22 A3001 RMK AO2 SLP148 T02720217
KSGF 181545Z 15010KT 10SM BKN019 OVC070 27/22 A3001 RMK AO2 T02720217
KSGF 181452Z 15011G20KT 10SM FEW070 SCT090 27/22 A3001 RMK AO2 SLP148 T02670217 58001
KSGF 181352Z 15014KT 10SM FEW080 26/21 A3001 RMK AO2 SLP149 T02560211
KSGF 181252Z 16010KT 10SM FEW085 25/21 A3002 RMK AO2 SLP152 T02500211
KSGF 181152Z 15008KT 10SM SCT075 24/22 A3001 RMK AO2 SLP149 70002 T02440217 10250 20244 53001
KSGF 181052Z 15006KT 10SM BKN090 24/22 A3002 RMK AO2 SLP149 T02440217
KSGF 180952Z 13007KT 10SM BKN085 25/22 A3001 RMK AO2 SLP147 T02500222
KSGF 180852Z 12006KT 10SM BKN100 25/22 A3001 RMK AO2 SLP147 T02500222 56005
KSGF 180752Z 00000KT 10SM FEW110 24/22 A3002 RMK AO2 SLP149 T02440222